createdAt,value
2018-05-02T00:01:06.527Z,99701.37
2018-05-02T00:03:35.719Z,99706.27
2018-05-02T00:06:04.930Z,99702.84
2018-05-02T00:08:34.138Z,99709.68
2018-05-02T00:11:03.395Z,99706.02
2018-05-02T00:13:32.590Z,99709.13
2018-05-02T00:16:01.812Z,99705.16
2018-05-02T00:18:31.194Z,99693.23
2018-05-02T00:21:00.413Z,99703.95
2018-05-02T00:23:30.931Z,99693.84
2018-05-02T00:26:00.213Z,99700.91
2018-05-02T00:28:29.518Z,99692.80
2018-05-02T00:30:58.728Z,99699.13
2018-05-02T00:33:27.909Z,99700.60
2018-05-02T00:35:57.232Z,99701.40
2018-05-02T00:38:26.442Z,99701.08
2018-05-02T00:40:55.709Z,99705.69
2018-05-02T00:43:24.902Z,99706.55
2018-05-02T00:45:54.849Z,99701.84
2018-05-02T00:48:24.091Z,99701.28
2018-05-02T00:50:54.069Z,99705.93
2018-05-02T00:53:23.285Z,99703.78
2018-05-02T00:55:52.494Z,99706.41
2018-05-02T00:58:21.875Z,99697.66
2018-05-02T01:00:52.135Z,99704.48
2018-05-02T01:03:22.105Z,99701.44
2018-05-02T01:05:51.307Z,99699.69
2018-05-02T01:08:20.525Z,99704.14
2018-05-02T01:10:50.480Z,99709.58
2018-05-02T01:13:19.674Z,99710.52
2018-05-02T01:15:48.864Z,99707.10
2018-05-02T01:18:18.075Z,99706.86
2018-05-02T01:20:47.282Z,99712.50
2018-05-02T01:23:16.527Z,99710.20
2018-05-02T01:25:45.717Z,99717.98
2018-05-02T01:28:14.921Z,99715.84
2018-05-02T01:30:44.973Z,99722.66
2018-05-02T01:33:15.646Z,99714.64
2018-05-02T01:35:44.823Z,99719.25
2018-05-02T01:38:14.025Z,99714.41
2018-05-02T01:40:43.245Z,99714.80
2018-05-02T01:43:13.221Z,99716.59
2018-05-02T01:45:42.456Z,99713.10
2018-05-02T01:48:11.653Z,99717.15
2018-05-02T01:50:40.860Z,99709.84
2018-05-02T01:53:10.061Z,99707.62
2018-05-02T01:55:39.297Z,99704.33
2018-05-02T01:58:08.486Z,99702.45
2018-05-02T02:00:37.683Z,99700.19
2018-05-02T02:03:06.903Z,99696.77
2018-05-02T02:05:36.101Z,99692.21
2018-05-02T02:08:05.282Z,99690.30
2018-05-02T02:10:34.489Z,99691.96
2018-05-02T02:13:03.698Z,99698.55
2018-05-02T02:15:33.013Z,99690.22
2018-05-02T02:18:02.245Z,99692.80
2018-05-02T02:20:31.441Z,99694.27
2018-05-02T02:23:01.500Z,99694.46
2018-05-02T02:25:30.758Z,99687.63
2018-05-02T02:28:00.816Z,99687.63
2018-05-02T02:30:30.019Z,99690.06
2018-05-02T02:32:59.220Z,99682.75
2018-05-02T02:35:28.435Z,99689.30
2018-05-02T02:37:57.645Z,99680.13
2018-05-02T02:40:27.020Z,99676.92
2018-05-02T02:42:56.211Z,99673.52
2018-05-02T02:45:25.437Z,99669.86
2018-05-02T02:47:54.635Z,99676.59
2018-05-02T02:50:23.833Z,99668.90
2018-05-02T02:52:53.059Z,99675.29
2018-05-02T02:55:22.268Z,99668.83
2018-05-02T02:57:51.455Z,99670.02
2018-05-02T03:00:21.415Z,99666.52
2018-05-02T03:02:50.618Z,99668.03
2018-05-02T03:05:20.120Z,99659.94
2018-05-02T03:07:49.388Z,99655.65
2018-05-02T03:10:18.648Z,99656.84
2018-05-02T03:12:48.655Z,99661.05
2018-05-02T03:15:17.893Z,99656.16
2018-05-02T03:17:47.896Z,99648.23
2018-05-02T03:20:17.853Z,99645.69
2018-05-02T03:22:48.613Z,99649.45
2018-05-02T03:25:17.814Z,99647.66
2018-05-02T03:27:47.039Z,99648.02
2018-05-02T03:30:17.010Z,99647.39
2018-05-02T03:32:46.325Z,99642.37
2018-05-02T03:35:16.434Z,99650.47
2018-05-02T03:37:45.634Z,99651.06
2018-05-02T03:40:14.857Z,99650.67
2018-05-02T03:42:44.101Z,99652.84
2018-05-02T03:45:13.355Z,99658.67
2018-05-02T03:47:42.553Z,99657.80
2018-05-02T03:50:12.585Z,99655.61
2018-05-02T03:52:42.523Z,99663.55
2018-05-02T03:55:12.145Z,99663.38
2018-05-02T03:57:41.330Z,99666.97
2018-05-02T04:00:28.738Z,99669.34
2018-05-02T04:03:16.425Z,99670.80
2018-05-02T04:06:03.314Z,99672.56
2018-05-02T04:08:32.642Z,99674.88
2018-05-02T04:11:02.106Z,99681.95
2018-05-02T04:13:31.319Z,99680.44
2018-05-02T04:16:01.581Z,99677.47
2018-05-02T04:18:30.773Z,99683.74
2018-05-02T04:20:59.973Z,99674.92
2018-05-02T04:23:29.934Z,99688.53
2018-05-02T04:25:59.140Z,99680.72
2018-05-02T04:28:28.481Z,99690.79
2018-05-02T04:30:57.682Z,99695.56
2018-05-02T04:33:26.904Z,99691.98
2018-05-02T04:35:56.177Z,99691.44
2018-05-02T04:38:25.426Z,99695.87
2018-05-02T04:40:54.596Z,99694.38
2018-05-02T04:43:24.578Z,99703.61
2018-05-02T04:45:53.841Z,99709.58
2018-05-02T04:48:23.046Z,99715.62
2018-05-02T04:50:52.372Z,99707.80
2018-05-02T04:53:21.672Z,99709.48
2018-05-02T04:55:50.891Z,99702.23
2018-05-02T04:58:20.869Z,99700.97
2018-05-02T05:00:50.248Z,99712.00
2018-05-02T05:03:19.462Z,99710.17
2018-05-02T05:05:48.740Z,99715.60
2018-05-02T05:08:18.692Z,99719.05
2018-05-02T05:10:47.899Z,99723.03
2018-05-02T05:13:17.882Z,99723.23
2018-05-02T05:15:47.090Z,99724.20
2018-05-02T05:18:16.341Z,99726.05
2018-05-02T05:20:46.362Z,99725.27
2018-05-02T05:23:16.341Z,99726.91
2018-05-02T05:25:45.563Z,99716.28
2018-05-02T05:28:15.600Z,99717.59
2018-05-02T05:30:44.791Z,99710.47
2018-05-02T05:33:14.008Z,99715.82
2018-05-02T05:35:43.181Z,99717.42
2018-05-02T05:38:12.447Z,99726.16
2018-05-02T05:40:41.701Z,99721.32
2018-05-02T05:43:10.894Z,99722.23
2018-05-02T05:45:40.261Z,99721.33
2018-05-02T05:48:09.519Z,99727.56
2018-05-02T05:50:38.730Z,99724.91
2018-05-02T05:53:07.922Z,99726.33
2018-05-02T05:55:37.115Z,99733.52
2018-05-02T05:58:06.313Z,99727.03
2018-05-02T06:00:35.518Z,99723.04
2018-05-02T06:03:04.747Z,99721.88
2018-05-02T06:05:34.740Z,99721.42
2018-05-02T06:08:04.079Z,99723.93
2018-05-02T06:10:34.067Z,99730.55
2018-05-02T06:13:04.093Z,99728.28
2018-05-02T06:15:33.330Z,99731.55
2018-05-02T06:18:02.575Z,99733.59
2018-05-02T06:20:31.768Z,99730.91
2018-05-02T06:23:01.771Z,99732.82
2018-05-02T06:25:30.980Z,99728.98
2018-05-02T06:28:00.232Z,99731.23
2018-05-02T06:30:29.990Z,99732.56
2018-05-02T06:32:59.240Z,99733.14
2018-05-02T06:35:28.424Z,99729.14
2018-05-02T06:37:57.712Z,99725.69
2018-05-02T06:40:26.883Z,99728.83
2018-05-02T06:42:56.174Z,99729.92
2018-05-02T06:45:25.413Z,99737.85
2018-05-02T06:47:54.633Z,99726.30
2018-05-02T06:50:23.944Z,99722.23
2018-05-02T06:52:53.175Z,99723.12
2018-05-02T06:55:22.374Z,99723.12
2018-05-02T06:57:52.451Z,99730.48
2018-05-02T07:00:21.713Z,99723.11
2018-05-02T07:02:51.809Z,99716.42
2018-05-02T07:05:21.013Z,99712.52
2018-05-02T07:07:50.993Z,99714.20
2018-05-02T07:10:20.289Z,99710.86
2018-05-02T07:12:49.539Z,99715.80
2018-05-02T07:15:19.536Z,99716.55
2018-05-02T07:17:48.775Z,99715.89
2018-05-02T07:20:18.081Z,99725.77
2018-05-02T07:22:47.298Z,99719.94
2018-05-02T07:25:16.638Z,99724.56
2018-05-02T07:27:46.650Z,99727.89
2018-05-02T07:30:15.897Z,99726.39
2018-05-02T07:32:45.223Z,99732.42
2018-05-02T07:35:14.636Z,99730.98
2018-05-02T07:37:43.859Z,99734.44
2018-05-02T07:40:13.885Z,99730.86
2018-05-02T07:42:43.866Z,99729.55
2018-05-02T07:45:13.395Z,99735.38
2018-05-02T07:47:42.662Z,99733.41
2018-05-02T07:50:11.970Z,99736.50
2018-05-02T07:52:41.203Z,99728.61
2018-05-02T07:55:11.217Z,99724.88
2018-05-02T07:57:40.545Z,99729.66
2018-05-02T08:00:09.757Z,99726.27
2018-05-02T08:02:38.962Z,99731.03
2018-05-02T08:05:08.250Z,99722.21
2018-05-02T08:07:37.455Z,99724.59
2018-05-02T08:10:06.682Z,99720.37
2018-05-02T08:12:35.930Z,99719.47
2018-05-02T08:15:05.273Z,99710.91
2018-05-02T08:17:34.483Z,99709.36
2018-05-02T08:20:03.707Z,99711.13
2018-05-02T08:22:33.664Z,99706.98
2018-05-02T08:25:02.873Z,99702.88
2018-05-02T08:27:32.302Z,99701.05
2018-05-02T08:30:02.343Z,99712.23
2018-05-02T08:32:31.550Z,99712.54
2018-05-02T08:35:00.798Z,99703.28
2018-05-02T08:37:30.045Z,99698.30
2018-05-02T08:39:59.332Z,99705.72
2018-05-02T08:42:28.538Z,99705.27
2018-05-02T08:44:57.741Z,99697.98
2018-05-02T08:47:26.971Z,99689.50
2018-05-02T08:49:56.197Z,99697.95
2018-05-02T08:52:25.413Z,99680.37
2018-05-02T08:54:55.382Z,99681.30
2018-05-02T08:57:24.696Z,99678.44
2018-05-02T08:59:53.865Z,99677.88
2018-05-02T09:02:23.098Z,99662.42
2018-05-02T09:04:52.338Z,99669.50
2018-05-02T09:07:21.557Z,99673.16
2018-05-02T09:09:50.802Z,99666.61
2018-05-02T09:12:20.813Z,99665.08
2018-05-02T09:14:50.055Z,99661.93
2018-05-02T09:17:19.273Z,99651.54
2018-05-02T09:19:48.617Z,99653.43
2018-05-02T09:22:18.603Z,99651.65
2018-05-02T09:24:47.824Z,99649.94
2018-05-02T09:27:17.907Z,99647.24
2018-05-02T09:29:47.190Z,99652.16
2018-05-02T09:32:16.421Z,99645.57
2018-05-02T09:34:45.635Z,99646.55
2018-05-02T09:37:14.837Z,99645.16
2018-05-02T09:39:44.845Z,99638.38
2018-05-02T09:42:15.552Z,99635.64
2018-05-02T09:44:44.945Z,99637.89
2018-05-02T09:47:14.271Z,99637.78
2018-05-02T09:49:43.480Z,99634.61
2018-05-02T09:52:12.701Z,99637.09
2018-05-02T09:54:42.684Z,99637.03
2018-05-02T09:57:11.901Z,99632.05
2018-05-02T09:59:41.890Z,99627.80
2018-05-02T10:02:11.125Z,99634.60
2018-05-02T10:04:40.368Z,99626.61
2018-05-02T10:07:09.635Z,99622.77
2018-05-02T10:09:39.581Z,99617.41
2018-05-02T10:12:08.939Z,99619.25
2018-05-02T10:14:38.938Z,99626.41
2018-05-02T10:17:08.147Z,99626.84
2018-05-02T10:19:38.106Z,99623.90
2018-05-02T10:22:07.339Z,99618.48
2018-05-02T10:24:36.558Z,99607.91
2018-05-02T10:27:06.591Z,99605.55
2018-05-02T10:29:35.789Z,99612.45
2018-05-02T10:32:05.774Z,99602.44
2018-05-02T10:34:35.005Z,99614.42
2018-05-02T10:37:04.958Z,99614.61
2018-05-02T10:39:34.406Z,99620.28
2018-05-02T10:42:04.466Z,99614.34
2018-05-02T10:44:33.655Z,99614.86
2018-05-02T10:47:02.989Z,99611.65
2018-05-02T10:49:32.221Z,99607.77
2018-05-02T10:52:02.254Z,99605.21
2018-05-02T10:54:31.470Z,99600.34
2018-05-02T10:57:00.836Z,99596.65
2018-05-02T10:59:30.895Z,99597.27
2018-05-02T11:02:00.816Z,99589.81
2018-05-02T11:04:30.053Z,99591.97
2018-05-02T11:07:00.081Z,99593.73
2018-05-02T11:09:30.048Z,99582.91
2018-05-02T11:11:59.280Z,99578.42
2018-05-02T11:14:29.296Z,99583.78
2018-05-02T11:16:59.308Z,99576.13
2018-05-02T11:19:28.552Z,99586.95
2018-05-02T11:21:57.781Z,99583.62
2018-05-02T11:24:27.037Z,99585.78
2018-05-02T11:26:56.557Z,99579.69
2018-05-02T11:29:26.544Z,99571.63
2018-05-02T11:31:55.775Z,99570.83
2018-05-02T11:34:25.842Z,99569.84
2018-05-02T11:36:55.078Z,99562.58
2018-05-02T11:39:24.317Z,99559.41
2018-05-02T11:41:53.542Z,99554.67
2018-05-02T11:44:23.551Z,99557.13
2018-05-02T11:46:52.972Z,99551.63
2018-05-02T11:49:22.196Z,99555.36
2018-05-02T11:51:51.410Z,99550.48
2018-05-02T11:54:20.650Z,99542.30
2018-05-02T11:56:50.652Z,99536.23
2018-05-02T11:59:19.860Z,99536.30
2018-05-02T12:01:50.025Z,99532.20
2018-05-02T12:04:19.316Z,99525.70
2018-05-02T12:06:48.917Z,99528.06
2018-05-02T12:09:18.308Z,99525.89
2018-05-02T12:11:48.315Z,99524.73
2018-05-02T12:14:18.289Z,99513.09
2018-05-02T12:16:47.518Z,99522.15
2018-05-02T12:19:17.513Z,99515.28
2018-05-02T12:21:47.661Z,99514.52
2018-05-02T12:24:17.633Z,99519.07
2018-05-02T12:26:46.861Z,99514.34
2018-05-02T12:29:16.078Z,99518.71
2018-05-02T12:31:45.321Z,99511.66
2018-05-02T12:34:15.293Z,99510.85
2018-05-02T12:36:45.293Z,99508.52
2018-05-02T12:39:14.521Z,99509.11
2018-05-02T12:41:43.738Z,99503.59
2018-05-02T12:44:12.972Z,99514.78
2018-05-02T12:46:42.988Z,99511.84
2018-05-02T12:49:12.212Z,99503.77
2018-05-02T12:51:42.226Z,99505.74
2018-05-02T12:54:12.213Z,99496.91
2018-05-02T12:56:41.429Z,99484.14
2018-05-02T12:59:10.652Z,99483.94
2018-05-02T13:01:39.854Z,99473.91
2018-05-02T13:04:09.088Z,99474.67
2018-05-02T13:06:38.312Z,99470.55
2018-05-02T13:09:07.521Z,99466.23
2018-05-02T13:11:36.731Z,99455.02
2018-05-02T13:14:06.699Z,99461.51
2018-05-02T13:16:35.909Z,99449.91
2018-05-02T13:19:05.348Z,99447.75
2018-05-02T13:21:35.343Z,99447.56
2018-05-02T13:24:04.581Z,99438.70
2018-05-02T13:26:33.957Z,99433.02
2018-05-02T13:29:04.062Z,99438.91
2018-05-02T13:31:33.268Z,99439.91
2018-05-02T13:34:03.274Z,99439.31
2018-05-02T13:36:32.503Z,99434.19
2018-05-02T13:39:01.751Z,99430.63
2018-05-02T13:41:30.941Z,99425.34
2018-05-02T13:44:00.141Z,99422.75
2018-05-02T13:46:29.374Z,99426.52
2018-05-02T13:48:59.350Z,99420.02
2018-05-02T13:51:28.685Z,99411.77
2018-05-02T13:53:58.035Z,99405.68
2018-05-02T13:56:27.261Z,99405.48
2018-05-02T13:58:57.136Z,99399.20
2018-05-02T14:01:26.586Z,99399.96
2018-05-02T14:03:55.897Z,99399.00
2018-05-02T14:06:25.119Z,99393.88
2018-05-02T14:08:55.117Z,99392.87
2018-05-02T14:11:25.139Z,99389.34
2018-05-02T14:13:55.115Z,99386.20
2018-05-02T14:16:24.491Z,99392.51
2018-05-02T14:18:53.723Z,99390.16
2018-05-02T14:21:23.153Z,99388.78
2018-05-02T14:23:53.104Z,99387.77
2018-05-02T14:26:22.317Z,99388.58
2018-05-02T14:28:51.702Z,99385.63
2018-05-02T14:31:20.959Z,99387.22
2018-05-02T14:33:50.937Z,99375.03
2018-05-02T14:36:20.217Z,99375.03
2018-05-02T14:38:49.467Z,99375.64
2018-05-02T14:41:18.862Z,99378.58
2018-05-02T14:43:48.075Z,99384.48
2018-05-02T14:46:18.101Z,99381.53
2018-05-02T14:48:47.313Z,99378.98
2018-05-02T14:51:16.641Z,99375.05
2018-05-02T14:53:45.891Z,99370.14
2018-05-02T14:56:15.108Z,99369.16
2018-05-02T14:58:44.345Z,99370.33
2018-05-02T15:01:13.574Z,99371.14
2018-05-02T15:03:42.830Z,99371.32
2018-05-02T15:06:12.059Z,99374.27
2018-05-02T15:08:41.393Z,99366.41
2018-05-02T15:11:10.644Z,99369.56
2018-05-02T15:13:39.869Z,99377.42
2018-05-02T15:16:09.090Z,99378.20
2018-05-02T15:18:38.496Z,99380.76
2018-05-02T15:21:08.465Z,99371.34
2018-05-02T15:23:37.677Z,99378.42
2018-05-02T15:26:07.682Z,99369.77
2018-05-02T15:28:36.978Z,99369.75
2018-05-02T15:31:06.266Z,99371.31
2018-05-02T15:33:35.462Z,99367.98
2018-05-02T15:36:04.712Z,99366.63
2018-05-02T15:38:34.920Z,99365.42
2018-05-02T15:41:05.075Z,99369.17
2018-05-02T15:43:35.046Z,99365.23
2018-05-02T15:46:04.303Z,99364.83
2018-05-02T15:48:33.492Z,99367.39
2018-05-02T15:51:03.533Z,99352.08
2018-05-02T15:53:32.770Z,99357.75
2018-05-02T15:56:02.214Z,99360.70
2018-05-02T15:58:32.331Z,99356.97
2018-05-02T16:01:01.562Z,99357.17
2018-05-02T16:03:30.976Z,99359.13
2018-05-02T16:06:01.043Z,99349.71
2018-05-02T16:08:30.393Z,99351.28
2018-05-02T16:11:00.399Z,99348.91
2018-05-02T16:13:29.629Z,99348.73
2018-05-02T16:15:59.883Z,99341.86
2018-05-02T16:18:29.097Z,99341.06
2018-05-02T16:20:58.349Z,99339.70
2018-05-02T16:23:27.601Z,99339.28
2018-05-02T16:25:56.945Z,99340.09
2018-05-02T16:28:26.211Z,99340.85
2018-05-02T16:30:55.466Z,99349.52
2018-05-02T16:33:24.714Z,99342.25
2018-05-02T16:35:54.090Z,99337.71
2018-05-02T16:38:23.347Z,99342.64
2018-05-02T16:40:52.573Z,99346.34
2018-05-02T16:43:21.790Z,99338.69
2018-05-02T16:45:51.033Z,99341.05
2018-05-02T16:48:21.172Z,99341.64
2018-05-02T16:50:50.409Z,99341.23
2018-05-02T16:53:19.644Z,99342.39
2018-05-02T16:55:49.652Z,99339.66
2018-05-02T16:58:18.917Z,99334.33
2018-05-02T17:00:48.162Z,99340.17
2018-05-02T17:03:17.388Z,99337.63
2018-05-02T17:05:46.625Z,99350.94
2018-05-02T17:08:16.155Z,99347.58
2018-05-02T17:10:46.140Z,99349.12
2018-05-02T17:13:15.370Z,99351.70
2018-05-02T17:15:45.403Z,99347.56
2018-05-02T17:18:15.400Z,99348.88
2018-05-02T17:20:44.648Z,99345.16
2018-05-02T17:23:13.873Z,99349.27
2018-05-02T17:25:43.916Z,99347.67
2018-05-02T17:28:14.626Z,99353.16
2018-05-02T17:30:43.864Z,99349.59
2018-05-02T17:33:13.109Z,99346.27
2018-05-02T17:35:42.321Z,99351.92
2018-05-02T17:38:11.557Z,99352.08
2018-05-02T17:40:41.201Z,99351.09
2018-05-02T17:43:10.432Z,99352.39
2018-05-02T17:45:39.803Z,99357.30
2018-05-02T17:48:09.029Z,99352.74
2018-05-02T17:50:38.280Z,99349.98
2018-05-02T17:53:07.617Z,99354.66
2018-05-02T17:55:38.369Z,99353.99
2018-05-02T17:58:08.375Z,99349.64
2018-05-02T18:00:37.766Z,99355.11
2018-05-02T18:03:07.017Z,99362.11
2018-05-02T18:05:36.309Z,99370.08
2018-05-02T18:08:05.511Z,99371.41
2018-05-02T18:10:36.124Z,99367.24
2018-05-02T18:13:06.402Z,99372.12
2018-05-02T18:15:36.616Z,99371.09
2018-05-02T18:18:05.821Z,99368.11
2018-05-02T18:20:35.081Z,99376.11
2018-05-02T18:23:04.414Z,99376.84
2018-05-02T18:25:33.666Z,99375.65
2018-05-02T18:28:03.716Z,99370.13
2018-05-02T18:30:32.875Z,99378.08
2018-05-02T18:33:02.874Z,99372.34
2018-05-02T18:35:32.099Z,99377.98
2018-05-02T18:38:01.343Z,99375.19
2018-05-02T18:40:31.617Z,99376.55
2018-05-02T18:43:00.930Z,99377.31
2018-05-02T18:45:30.153Z,99378.19
2018-05-02T18:47:59.375Z,99381.62
2018-05-02T18:50:28.601Z,99386.58
2018-05-02T18:52:58.634Z,99384.48
2018-05-02T18:55:27.890Z,99388.34
2018-05-02T18:57:57.137Z,99385.33
2018-05-02T19:00:26.836Z,99385.08
2018-05-02T19:02:56.904Z,99388.11
2018-05-02T19:05:26.141Z,99389.18
2018-05-02T19:07:56.217Z,99384.97
2018-05-02T19:10:25.484Z,99389.55
2018-05-02T19:12:54.725Z,99390.03
2018-05-02T19:15:24.262Z,99391.84
2018-05-02T19:17:59.863Z,99395.84
2018-05-02T19:20:34.603Z,99392.28
2018-05-02T19:23:04.612Z,99395.69
2018-05-02T19:25:39.309Z,99397.50
2018-05-02T19:28:08.574Z,99398.05
2018-05-02T19:30:40.514Z,99392.72
2018-05-02T19:33:15.812Z,99394.55
2018-05-02T19:35:45.139Z,99390.22
2018-05-02T19:38:14.547Z,99398.59
2018-05-02T19:40:49.305Z,99400.67
2018-05-02T19:43:24.823Z,99395.95
2018-05-02T19:45:54.242Z,99399.58
2018-05-02T19:48:23.493Z,99406.75
2018-05-02T19:50:58.251Z,99412.98
2018-05-02T19:53:28.288Z,99409.98
2018-05-02T19:55:58.296Z,99403.30
2018-05-02T19:58:27.532Z,99401.72
2018-05-02T20:01:02.199Z,99400.69
2018-05-02T20:03:31.468Z,99396.78
2018-05-02T20:06:01.485Z,99400.83
2018-05-02T20:08:36.954Z,99408.41
2018-05-02T20:11:11.594Z,99409.73
2018-05-02T20:13:46.246Z,99397.39
2018-05-02T20:16:15.612Z,99407.25
2018-05-02T20:18:44.876Z,99403.53
2018-05-02T20:21:14.859Z,99401.74
2018-05-02T20:23:44.932Z,99406.42
2018-05-02T20:26:14.194Z,99407.13
2018-05-02T20:28:43.405Z,99410.61
2018-05-02T20:31:12.626Z,99406.59
2018-05-02T20:33:41.860Z,99409.90
2018-05-02T20:36:11.130Z,99407.51
2018-05-02T20:38:40.346Z,99403.59
2018-05-02T20:41:09.564Z,99407.06
2018-05-02T20:43:39.537Z,99410.09
2018-05-02T20:46:08.917Z,99409.89
2018-05-02T20:48:38.175Z,99416.70
2018-05-02T20:51:08.183Z,99415.26
2018-05-02T20:53:38.187Z,99414.63
2018-05-02T20:56:07.438Z,99412.87
2018-05-02T20:58:36.653Z,99414.75
2018-05-02T21:01:05.897Z,99415.88
2018-05-02T21:03:35.954Z,99421.64
2018-05-02T21:06:05.204Z,99421.24
2018-05-02T21:08:34.403Z,99414.94
2018-05-02T21:11:03.927Z,99419.73
2018-05-02T21:13:33.947Z,99411.48
2018-05-02T21:16:03.938Z,99411.58
2018-05-02T21:18:33.178Z,99405.13
2018-05-02T21:21:02.355Z,99409.31
2018-05-02T21:23:32.369Z,99413.58
2018-05-02T21:26:02.449Z,99411.01
2018-05-02T21:28:31.689Z,99414.13
2018-05-02T21:31:01.028Z,99416.03
2018-05-02T21:33:30.223Z,99412.43
2018-05-02T21:35:59.441Z,99416.52
2018-05-02T21:38:28.677Z,99417.61
2018-05-02T21:40:57.880Z,99415.00
2018-05-02T21:43:27.137Z,99417.09
2018-05-02T21:45:56.380Z,99425.09
2018-05-02T21:48:26.415Z,99424.30
2018-05-02T21:50:55.655Z,99423.72
2018-05-02T21:53:25.674Z,99424.48
2018-05-02T21:55:54.954Z,99421.81
2018-05-02T21:58:24.142Z,99430.95
2018-05-02T22:00:53.669Z,99439.43
2018-05-02T22:03:22.887Z,99433.55
2018-05-02T22:05:53.089Z,99442.20
2018-05-02T22:08:23.637Z,99440.81
2018-05-02T22:10:52.933Z,99438.41
2018-05-02T22:13:22.909Z,99440.34
2018-05-02T22:15:52.153Z,99440.67
2018-05-02T22:18:22.132Z,99436.98
2018-05-02T22:20:51.359Z,99432.55
2018-05-02T22:23:20.716Z,99443.23
2018-05-02T22:25:49.942Z,99434.81
2018-05-02T22:28:19.144Z,99441.44
2018-05-02T22:30:49.898Z,99448.69
2018-05-02T22:33:19.855Z,99452.92
2018-05-02T22:35:49.093Z,99461.84
2018-05-02T22:38:18.339Z,99457.08
2018-05-02T22:40:47.557Z,99461.67
2018-05-02T22:43:16.943Z,99465.05
2018-05-02T22:45:46.265Z,99471.28
2018-05-02T22:48:15.573Z,99468.20
2018-05-02T22:50:44.794Z,99474.97
2018-05-02T22:53:14.031Z,99468.91
2018-05-02T22:55:43.981Z,99471.60
2018-05-02T22:58:14.015Z,99474.26
2018-05-02T23:00:43.988Z,99479.06
2018-05-02T23:03:13.209Z,99483.76
2018-05-02T23:05:42.423Z,99483.50
2018-05-02T23:08:11.650Z,99485.52
2018-05-02T23:10:41.641Z,99486.34
2018-05-02T23:13:10.846Z,99479.88
2018-05-02T23:15:40.067Z,99483.93
2018-05-02T23:18:09.300Z,99485.87
2018-05-02T23:20:38.874Z,99488.95
2018-05-02T23:23:08.858Z,99484.75
2018-05-02T23:25:38.065Z,99488.77
2018-05-02T23:28:08.070Z,99488.91
2018-05-02T23:30:37.262Z,99484.97
2018-05-02T23:33:06.567Z,99494.52
2018-05-02T23:35:37.305Z,99481.70
2018-05-02T23:38:08.020Z,99486.64
2018-05-02T23:40:37.260Z,99483.41
2018-05-02T23:43:07.238Z,99480.04
2018-05-02T23:45:36.530Z,99479.64
2018-05-02T23:48:05.742Z,99476.42
2018-05-02T23:50:34.970Z,99480.50
2018-05-02T23:53:04.194Z,99476.84
2018-05-02T23:55:33.420Z,99475.84
2018-05-02T23:58:02.638Z,99469.82
